sensor_id;sensor_type;location;lat;lon;timestamp;temperature;humidity
5466;DHT22;2755;50.728;7.108;2024-03-08T00:00:15;3.20;1.00
5466;DHT22;2755;50.728;7.108;2024-03-08T00:02:43;3.60;1.00
5466;DHT22;2755;50.728;7.108;2024-03-08T00:05:09;3.50;1.00
5466;DHT22;2755;50.728;7.108;2024-03-08T00:07:35;3.50;1.00
5466;DHT22;2755;50.728;7.108;2024-03-08T00:10:04;2.80;1.00
5466;DHT22;2755;50.728;7.108;2024-03-08T00:14:56;2.90;1.00
5466;DHT22;2755;50.728;7.108;2024-03-08T00:17:22;3.30;1.00
5466;DHT22;2755;50.728;7.108;2024-03-08T00:19:54;2.90;1.00
5466;DHT22;2755;50.728;7.108;2024-03-08T00:22:19;3.10;1.00
5466;DHT22;2755;50.728;7.108;2024-03-08T00:24:45;3.00;1.00
5466;DHT22;2755;50.728;7.108;2024-03-08T00:27:10;3.30;1.00
5466;DHT22;2755;50.728;7.108;2024-03-08T00:29:37;3.30;1.00
5466;DHT22;2755;50.728;7.108;2024-03-08T00:32:04;2.80;1.00
5466;DHT22;2755;50.728;7.108;2024-03-08T00:34:30;3.50;1.00
5466;DHT22;2755;50.728;7.108;2024-03-08T00:39:23;3.10;1.00
5466;DHT22;2755;50.728;7.108;2024-03-08T00:41:49;2.70;1.00
5466;DHT22;2755;50.728;7.108;2024-03-08T00:44:14;3.10;1.00
5466;DHT22;2755;50.728;7.108;2024-03-08T00:46:40;2.90;1.00
5466;DHT22;2755;50.728;7.108;2024-03-08T00:49:05;2.90;1.00
5466;DHT22;2755;50.728;7.108;2024-03-08T00:51:32;2.50;1.00
5466;DHT22;2755;50.728;7.108;2024-03-08T00:53:57;2.30;1.00
5466;DHT22;2755;50.728;7.108;2024-03-08T00:56:23;2.60;1.00
5466;DHT22;2755;50.728;7.108;2024-03-08T01:01:18;2.50;1.00
5466;DHT22;2755;50.728;7.108;2024-03-08T01:03:44;2.80;1.00
5466;DHT22;2755;50.728;7.108;2024-03-08T01:06:09;2.80;1.00
5466;DHT22;2755;50.728;7.108;2024-03-08T01:08:36;2.60;1.00
5466;DHT22;2755;50.728;7.108;2024-03-08T01:11:06;3.10;1.00
5466;DHT22;2755;50.728;7.108;2024-03-08T01:13:31;2.80;1.00
5466;DHT22;2755;50.728;7.108;2024-03-08T01:15:57;2.10;1.00
5466;DHT22;2755;50.728;7.108;2024-03-08T01:18:23;2.80;1.00
5466;DHT22;2755;50.728;7.108;2024-03-08T01:20:48;2.30;1.00
5466;DHT22;2755;50.728;7.108;2024-03-08T01:23:14;2.60;1.00
5466;DHT22;2755;50.728;7.108;2024-03-08T01:25:39;2.70;1.00
5466;DHT22;2755;50.728;7.108;2024-03-08T01:28:07;3.10;1.00
5466;DHT22;2755;50.728;7.108;2024-03-08T01:33:00;2.40;1.00
5466;DHT22;2755;50.728;7.108;2024-03-08T01:35:26;2.10;1.00
5466;DHT22;2755;50.728;7.108;2024-03-08T01:37:52;1.90;1.00
5466;DHT22;2755;50.728;7.108;2024-03-08T01:42:44;2.30;1.00
5466;DHT22;2755;50.728;7.108;2024-03-08T01:45:10;2.70;1.00
5466;DHT22;2755;50.728;7.108;2024-03-08T01:50:02;2.20;1.00
5466;DHT22;2755;50.728;7.108;2024-03-08T01:52:35;2.50;1.00
5466;DHT22;2755;50.728;7.108;2024-03-08T01:55:02;2.50;1.00
5466;DHT22;2755;50.728;7.108;2024-03-08T01:57:31;2.60;1.00
5466;DHT22;2755;50.728;7.108;2024-03-08T01:59:59;2.40;1.00
5466;DHT22;2755;50.728;7.108;2024-03-08T02:02:27;2.70;1.00
5466;DHT22;2755;50.728;7.108;2024-03-08T02:04:53;2.40;1.00
5466;DHT22;2755;50.728;7.108;2024-03-08T02:09:44;2.10;1.00
5466;DHT22;2755;50.728;7.108;2024-03-08T02:12:10;2.90;1.00
5466;DHT22;2755;50.728;7.108;2024-03-08T02:14:35;2.50;1.00
5466;DHT22;2755;50.728;7.108;2024-03-08T02:19:28;2.60;1.00
5466;DHT22;2755;50.728;7.108;2024-03-08T02:21:53;2.20;1.00
5466;DHT22;2755;50.728;7.108;2024-03-08T02:24:19;2.40;1.00
5466;DHT22;2755;50.728;7.108;2024-03-08T02:26:44;2.90;1.00
5466;DHT22;2755;50.728;7.108;2024-03-08T02:29:10;2.50;1.00
5466;DHT22;2755;50.728;7.108;2024-03-08T02:31:35;3.10;1.00
5466;DHT22;2755;50.728;7.108;2024-03-08T02:34:01;2.20;1.00
5466;DHT22;2755;50.728;7.108;2024-03-08T02:36:27;3.00;1.00
5466;DHT22;2755;50.728;7.108;2024-03-08T02:38:52;2.80;1.00
5466;DHT22;2755;50.728;7.108;2024-03-08T02:43:46;3.10;1.00
5466;DHT22;2755;50.728;7.108;2024-03-08T02:46:12;2.40;1.00
5466;DHT22;2755;50.728;7.108;2024-03-08T02:51:05;3.00;1.00
5466;DHT22;2755;50.728;7.108;2024-03-08T02:53:30;2.70;1.00
5466;DHT22;2755;50.728;7.108;2024-03-08T03:00:48;2.50;1.00
5466;DHT22;2755;50.728;7.108;2024-03-08T03:03:14;2.90;1.00
5466;DHT22;2755;50.728;7.108;2024-03-08T03:05:39;2.60;1.00
5466;DHT22;2755;50.728;7.108;2024-03-08T03:08:06;2.10;1.00
5466;DHT22;2755;50.728;7.108;2024-03-08T03:10:34;2.50;1.00
5466;DHT22;2755;50.728;7.108;2024-03-08T03:13:00;2.10;1.00
5466;DHT22;2755;50.728;7.108;2024-03-08T03:15:25;2.60;1.00
5466;DHT22;2755;50.728;7.108;2024-03-08T03:17:51;2.40;1.00
5466;DHT22;2755;50.728;7.108;2024-03-08T03:20:17;2.40;1.00
5466;DHT22;2755;50.728;7.108;2024-03-08T03:22:49;2.60;1.00
5466;DHT22;2755;50.728;7.108;2024-03-08T03:25:21;2.60;1.00
5466;DHT22;2755;50.728;7.108;2024-03-08T03:27:52;2.70;1.00
5466;DHT22;2755;50.728;7.108;2024-03-08T03:30:18;3.00;1.00
5466;DHT22;2755;50.728;7.108;2024-03-08T03:35:14;2.40;1.00
5466;DHT22;2755;50.728;7.108;2024-03-08T03:37:40;2.50;1.00
5466;DHT22;2755;50.728;7.108;2024-03-08T03:40:09;2.40;1.00
5466;DHT22;2755;50.728;7.108;2024-03-08T03:42:34;2.10;1.00
5466;DHT22;2755;50.728;7.108;2024-03-08T03:45:00;2.30;1.00
5466;DHT22;2755;50.728;7.108;2024-03-08T03:49:52;2.20;1.00
5466;DHT22;2755;50.728;7.108;2024-03-08T03:52:19;2.50;1.00
5466;DHT22;2755;50.728;7.108;2024-03-08T03:54:45;2.10;1.00
5466;DHT22;2755;50.728;7.108;2024-03-08T03:59:37;2.60;1.00
5466;DHT22;2755;50.728;7.108;2024-03-08T04:06:55;2.20;1.00
5466;DHT22;2755;50.728;7.108;2024-03-08T04:09:20;2.40;1.00
5466;DHT22;2755;50.728;7.108;2024-03-08T04:11:48;2.10;1.00
5466;DHT22;2755;50.728;7.108;2024-03-08T04:14:13;1.10;1.00
5466;DHT22;2755;50.728;7.108;2024-03-08T04:16:39;2.30;1.00
5466;DHT22;2755;50.728;7.108;2024-03-08T04:19:04;2.20;1.00
5466;DHT22;2755;50.728;7.108;2024-03-08T04:21:30;2.10;1.00
5466;DHT22;2755;50.728;7.108;2024-03-08T04:23:56;2.00;1.00
5466;DHT22;2755;50.728;7.108;2024-03-08T04:26:22;2.30;1.00
5466;DHT22;2755;50.728;7.108;2024-03-08T04:28:47;2.70;1.00
5466;DHT22;2755;50.728;7.108;2024-03-08T04:31:13;2.00;1.00
5466;DHT22;2755;50.728;7.108;2024-03-08T04:33:38;2.40;1.00
5466;DHT22;2755;50.728;7.108;2024-03-08T04:36:04;2.10;1.00
5466;DHT22;2755;50.728;7.108;2024-03-08T04:38:30;2.50;1.00
5466;DHT22;2755;50.728;7.108;2024-03-08T04:40:57;2.30;1.00
5466;DHT22;2755;50.728;7.108;2024-03-08T04:43:23;3.00;1.00
5466;DHT22;2755;50.728;7.108;2024-03-08T04:45:52;2.50;1.00
5466;DHT22;2755;50.728;7.108;2024-03-08T04:50:43;2.60;1.00
5466;DHT22;2755;50.728;7.108;2024-03-08T04:53:10;2.30;1.00
5466;DHT22;2755;50.728;7.108;2024-03-08T04:55:35;2.60;1.00
5466;DHT22;2755;50.728;7.108;2024-03-08T04:58:03;2.40;1.00
5466;DHT22;2755;50.728;7.108;2024-03-08T05:00:29;2.30;1.00
5466;DHT22;2755;50.728;7.108;2024-03-08T05:02:55;2.60;1.00
5466;DHT22;2755;50.728;7.108;2024-03-08T05:05:21;3.00;1.00
5466;DHT22;2755;50.728;7.108;2024-03-08T05:10:14;2.50;1.00
5466;DHT22;2755;50.728;7.108;2024-03-08T05:12:43;2.40;1.00
5466;DHT22;2755;50.728;7.108;2024-03-08T05:15:09;2.50;1.00
5466;DHT22;2755;50.728;7.108;2024-03-08T05:17:34;1.90;1.00
5466;DHT22;2755;50.728;7.108;2024-03-08T05:20:00;2.10;1.00
5466;DHT22;2755;50.728;7.108;2024-03-08T05:22:26;2.30;1.00
5466;DHT22;2755;50.728;7.108;2024-03-08T05:24:51;2.30;1.00
5466;DHT22;2755;50.728;7.108;2024-03-08T05:27:17;2.40;1.00
5466;DHT22;2755;50.728;7.108;2024-03-08T05:29:42;1.80;1.00
5466;DHT22;2755;50.728;7.108;2024-03-08T05:32:08;2.00;1.00
5466;DHT22;2755;50.728;7.108;2024-03-08T05:34:35;2.60;1.00
5466;DHT22;2755;50.728;7.108;2024-03-08T05:37:00;2.10;1.00
5466;DHT22;2755;50.728;7.108;2024-03-08T05:39:27;2.10;1.00
5466;DHT22;2755;50.728;7.108;2024-03-08T05:41:52;2.10;1.00
5466;DHT22;2755;50.728;7.108;2024-03-08T05:49:12;2.00;1.00
5466;DHT22;2755;50.728;7.108;2024-03-08T05:51:39;2.00;1.00
5466;DHT22;2755;50.728;7.108;2024-03-08T05:54:08;2.00;1.00
5466;DHT22;2755;50.728;7.108;2024-03-08T05:56:37;1.60;1.00
5466;DHT22;2755;50.728;7.108;2024-03-08T05:59:03;2.10;1.00
5466;DHT22;2755;50.728;7.108;2024-03-08T06:01:29;2.10;1.00
5466;DHT22;2755;50.728;7.108;2024-03-08T06:03:55;1.90;1.00
5466;DHT22;2755;50.728;7.108;2024-03-08T06:06:25;1.50;1.00
5466;DHT22;2755;50.728;7.108;2024-03-08T06:08:51;1.90;1.00
5466;DHT22;2755;50.728;7.108;2024-03-08T06:11:18;1.60;1.00
5466;DHT22;2755;50.728;7.108;2024-03-08T06:13:44;1.50;1.00
5466;DHT22;2755;50.728;7.108;2024-03-08T06:16:10;2.40;1.00
5466;DHT22;2755;50.728;7.108;2024-03-08T06:18:36;1.90;1.00
5466;DHT22;2755;50.728;7.108;2024-03-08T06:21:08;1.80;1.00
5466;DHT22;2755;50.728;7.108;2024-03-08T06:23:41;2.70;1.00
5466;DHT22;2755;50.728;7.108;2024-03-08T06:26:07;2.30;1.00
5466;DHT22;2755;50.728;7.108;2024-03-08T06:28:33;1.70;1.00
5466;DHT22;2755;50.728;7.108;2024-03-08T06:31:00;2.20;1.00
5466;DHT22;2755;50.728;7.108;2024-03-08T06:33:26;1.50;1.00
5466;DHT22;2755;50.728;7.108;2024-03-08T06:35:55;2.00;1.00
5466;DHT22;2755;50.728;7.108;2024-03-08T06:38:24;1.60;1.00
5466;DHT22;2755;50.728;7.108;2024-03-08T06:40:50;2.00;1.00
5466;DHT22;2755;50.728;7.108;2024-03-08T06:43:17;2.20;1.00
5466;DHT22;2755;50.728;7.108;2024-03-08T06:45:44;2.60;1.00
5466;DHT22;2755;50.728;7.108;2024-03-08T06:48:19;2.60;1.00
5466;DHT22;2755;50.728;7.108;2024-03-08T06:50:45;2.30;1.00
5466;DHT22;2755;50.728;7.108;2024-03-08T06:53:12;2.80;1.00
5466;DHT22;2755;50.728;7.108;2024-03-08T06:55:38;2.60;1.00
5466;DHT22;2755;50.728;7.108;2024-03-08T06:58:04;3.50;1.00
5466;DHT22;2755;50.728;7.108;2024-03-08T07:05:27;3.90;1.00
5466;DHT22;2755;50.728;7.108;2024-03-08T07:07:54;4.20;1.00
5466;DHT22;2755;50.728;7.108;2024-03-08T07:10:21;5.00;1.00
5466;DHT22;2755;50.728;7.108;2024-03-08T07:12:49;5.90;1.00
5466;DHT22;2755;50.728;7.108;2024-03-08T07:17:41;6.20;1.00
5466;DHT22;2755;50.728;7.108;2024-03-08T07:20:10;6.10;1.00
5466;DHT22;2755;50.728;7.108;2024-03-08T07:25:06;6.80;1.00
5466;DHT22;2755;50.728;7.108;2024-03-08T07:27:50;7.10;1.00
5466;DHT22;2755;50.728;7.108;2024-03-08T07:30:16;7.20;1.00
5466;DHT22;2755;50.728;7.108;2024-03-08T07:33:00;8.10;1.00
5466;DHT22;2755;50.728;7.108;2024-03-08T07:35:28;7.70;1.00
5466;DHT22;2755;50.728;7.108;2024-03-08T07:37:54;7.70;1.00
5466;DHT22;2755;50.728;7.108;2024-03-08T07:40:23;7.70;1.00
5466;DHT22;2755;50.728;7.108;2024-03-08T07:42:49;6.90;1.00
5466;DHT22;2755;50.728;7.108;2024-03-08T07:50:08;7.30;1.00
5466;DHT22;2755;50.728;7.108;2024-03-08T07:52:34;7.30;1.00
5466;DHT22;2755;50.728;7.108;2024-03-08T07:57:27;7.50;1.00
5466;DHT22;2755;50.728;7.108;2024-03-08T07:59:52;7.50;1.00
5466;DHT22;2755;50.728;7.108;2024-03-08T08:04:44;7.50;1.00
5466;DHT22;2755;50.728;7.108;2024-03-08T08:07:10;7.40;1.00
5466;DHT22;2755;50.728;7.108;2024-03-08T08:09:36;7.90;1.00
5466;DHT22;2755;50.728;7.108;2024-03-08T08:12:03;8.00;1.00
5466;DHT22;2755;50.728;7.108;2024-03-08T08:14:32;8.50;1.00
5466;DHT22;2755;50.728;7.108;2024-03-08T08:16:57;8.70;1.00
5466;DHT22;2755;50.728;7.108;2024-03-08T08:19:25;8.60;1.00
5466;DHT22;2755;50.728;7.108;2024-03-08T08:21:52;8.60;1.00
5466;DHT22;2755;50.728;7.108;2024-03-08T08:24:18;9.10;1.00
5466;DHT22;2755;50.728;7.108;2024-03-08T08:26:45;9.20;1.00
5466;DHT22;2755;50.728;7.108;2024-03-08T08:29:11;9.20;1.00
5466;DHT22;2755;50.728;7.108;2024-03-08T08:31:37;8.90;1.00
5466;DHT22;2755;50.728;7.108;2024-03-08T08:34:02;9.00;1.00
5466;DHT22;2755;50.728;7.108;2024-03-08T08:36:28;8.70;1.00
5466;DHT22;2755;50.728;7.108;2024-03-08T08:38:55;8.80;1.00
5466;DHT22;2755;50.728;7.108;2024-03-08T08:41:21;8.60;1.00
5466;DHT22;2755;50.728;7.108;2024-03-08T08:43:48;9.00;1.00
5466;DHT22;2755;50.728;7.108;2024-03-08T08:46:17;8.90;1.00
5466;DHT22;2755;50.728;7.108;2024-03-08T08:48:43;8.70;1.00
5466;DHT22;2755;50.728;7.108;2024-03-08T08:51:11;9.30;1.00
5466;DHT22;2755;50.728;7.108;2024-03-08T08:53:42;9.40;1.00
5466;DHT22;2755;50.728;7.108;2024-03-08T08:56:08;9.50;1.00
5466;DHT22;2755;50.728;7.108;2024-03-08T08:58:34;9.40;1.00
5466;DHT22;2755;50.728;7.108;2024-03-08T09:01:00;9.50;1.00
5466;DHT22;2755;50.728;7.108;2024-03-08T09:03:27;10.00;1.00
5466;DHT22;2755;50.728;7.108;2024-03-08T09:10:45;9.90;1.00
5466;DHT22;2755;50.728;7.108;2024-03-08T09:15:39;10.90;1.00
5466;DHT22;2755;50.728;7.108;2024-03-08T09:18:07;11.20;1.00
5466;DHT22;2755;50.728;7.108;2024-03-08T09:20:33;11.40;1.00
5466;DHT22;2755;50.728;7.108;2024-03-08T09:22:59;11.30;1.00
5466;DHT22;2755;50.728;7.108;2024-03-08T09:25:25;11.90;1.00
5466;DHT22;2755;50.728;7.108;2024-03-08T09:30:17;11.00;1.00
5466;DHT22;2755;50.728;7.108;2024-03-08T09:32:43;10.90;1.00
5466;DHT22;2755;50.728;7.108;2024-03-08T09:37:36;11.10;1.00
5466;DHT22;2755;50.728;7.108;2024-03-08T09:40:03;10.90;1.00
5466;DHT22;2755;50.728;7.108;2024-03-08T09:42:35;11.40;1.00
5466;DHT22;2755;50.728;7.108;2024-03-08T09:45:09;11.00;1.00
5466;DHT22;2755;50.728;7.108;2024-03-08T09:47:37;11.30;1.00
5466;DHT22;2755;50.728;7.108;2024-03-08T09:54:58;11.90;1.00
5466;DHT22;2755;50.728;7.108;2024-03-08T09:57:23;12.00;1.00
5466;DHT22;2755;50.728;7.108;2024-03-08T10:02:16;12.30;1.00
5466;DHT22;2755;50.728;7.108;2024-03-08T10:07:08;12.10;1.00
5466;DHT22;2755;50.728;7.108;2024-03-08T10:14:25;12.00;1.00
5466;DHT22;2755;50.728;7.108;2024-03-08T10:16:52;12.30;1.00
5466;DHT22;2755;50.728;7.108;2024-03-08T10:21:50;12.60;1.00
5466;DHT22;2755;50.728;7.108;2024-03-08T10:29:12;12.60;1.00
5466;DHT22;2755;50.728;7.108;2024-03-08T10:31:43;11.70;1.00
5466;DHT22;2755;50.728;7.108;2024-03-08T10:36:36;12.50;1.00
5466;DHT22;2755;50.728;7.108;2024-03-08T10:39:14;12.70;1.00
5466;DHT22;2755;50.728;7.108;2024-03-08T10:41:43;12.90;1.00
5466;DHT22;2755;50.728;7.108;2024-03-08T10:44:53;13.00;1.00
5466;DHT22;2755;50.728;7.108;2024-03-08T10:52:29;11.80;1.00
5466;DHT22;2755;50.728;7.108;2024-03-08T10:54:56;12.40;1.00
5466;DHT22;2755;50.728;7.108;2024-03-08T10:59:49;11.30;1.00
5466;DHT22;2755;50.728;7.108;2024-03-08T11:02:16;12.00;1.00
5466;DHT22;2755;50.728;7.108;2024-03-08T11:04:47;11.80;1.00
5466;DHT22;2755;50.728;7.108;2024-03-08T11:07:14;11.90;1.00
5466;DHT22;2755;50.728;7.108;2024-03-08T11:09:42;12.20;1.00
5466;DHT22;2755;50.728;7.108;2024-03-08T11:12:25;12.20;1.00
5466;DHT22;2755;50.728;7.108;2024-03-08T11:14:54;12.40;1.00
5466;DHT22;2755;50.728;7.108;2024-03-08T11:19:56;12.50;1.00
5466;DHT22;2755;50.728;7.108;2024-03-08T11:22:26;12.80;1.00
5466;DHT22;2755;50.728;7.108;2024-03-08T11:24:53;12.30;1.00
5466;DHT22;2755;50.728;7.108;2024-03-08T11:27:18;12.10;1.00
5466;DHT22;2755;50.728;7.108;2024-03-08T11:29:59;12.00;1.00
5466;DHT22;2755;50.728;7.108;2024-03-08T11:32:29;12.20;1.00
5466;DHT22;2755;50.728;7.108;2024-03-08T11:37:21;12.30;1.00
5466;DHT22;2755;50.728;7.108;2024-03-08T11:39:55;12.30;1.00
5466;DHT22;2755;50.728;7.108;2024-03-08T11:42:25;12.50;1.00
5466;DHT22;2755;50.728;7.108;2024-03-08T11:44:53;13.50;1.00
5466;DHT22;2755;50.728;7.108;2024-03-08T11:47:20;12.90;1.00
5466;DHT22;2755;50.728;7.108;2024-03-08T11:49:46;12.40;1.00
5466;DHT22;2755;50.728;7.108;2024-03-08T11:52:14;12.60;1.00
5466;DHT22;2755;50.728;7.108;2024-03-08T11:54:49;12.60;1.00
5466;DHT22;2755;50.728;7.108;2024-03-08T11:57:23;12.70;1.00
5466;DHT22;2755;50.728;7.108;2024-03-08T11:59:52;12.80;1.00
5466;DHT22;2755;50.728;7.108;2024-03-08T12:04:47;13.20;1.00
5466;DHT22;2755;50.728;7.108;2024-03-08T12:09:42;13.20;1.00
5466;DHT22;2755;50.728;7.108;2024-03-08T12:12:12;12.60;1.00
5466;DHT22;2755;50.728;7.108;2024-03-08T12:14:38;13.20;1.00
5466;DHT22;2755;50.728;7.108;2024-03-08T12:17:04;13.00;1.00
5466;DHT22;2755;50.728;7.108;2024-03-08T12:19:30;12.80;1.00
5466;DHT22;2755;50.728;7.108;2024-03-08T12:24:22;12.30;1.00
5466;DHT22;2755;50.728;7.108;2024-03-08T12:26:48;11.90;1.00
5466;DHT22;2755;50.728;7.108;2024-03-08T12:29:37;11.80;1.00
5466;DHT22;2755;50.728;7.108;2024-03-08T12:34:30;11.50;1.00
5466;DHT22;2755;50.728;7.108;2024-03-08T12:36:58;10.80;1.00
5466;DHT22;2755;50.728;7.108;2024-03-08T12:41:56;11.40;1.00
5466;DHT22;2755;50.728;7.108;2024-03-08T12:51:47;11.80;1.00
5466;DHT22;2755;50.728;7.108;2024-03-08T12:54:13;11.50;1.00
5466;DHT22;2755;50.728;7.108;2024-03-08T12:59:06;11.30;1.00
5466;DHT22;2755;50.728;7.108;2024-03-08T13:01:33;11.30;1.00
5466;DHT22;2755;50.728;7.108;2024-03-08T13:06:27;11.20;1.00
5466;DHT22;2755;50.728;7.108;2024-03-08T13:11:21;11.50;1.00
5466;DHT22;2755;50.728;7.108;2024-03-08T13:13:47;11.40;1.00
5466;DHT22;2755;50.728;7.108;2024-03-08T13:16:13;11.40;1.00
5466;DHT22;2755;50.728;7.108;2024-03-08T13:18:43;11.20;1.00
5466;DHT22;2755;50.728;7.108;2024-03-08T13:21:09;11.30;1.00
5466;DHT22;2755;50.728;7.108;2024-03-08T13:23:37;11.40;1.00
5466;DHT22;2755;50.728;7.108;2024-03-08T13:26:06;10.90;1.00
5466;DHT22;2755;50.728;7.108;2024-03-08T13:28:32;11.40;1.00
5466;DHT22;2755;50.728;7.108;2024-03-08T13:33:28;11.00;1.00
5466;DHT22;2755;50.728;7.108;2024-03-08T13:35:56;11.20;1.00
5466;DHT22;2755;50.728;7.108;2024-03-08T13:43:17;10.90;1.00
5466;DHT22;2755;50.728;7.108;2024-03-08T13:45:43;11.40;1.00
5466;DHT22;2755;50.728;7.108;2024-03-08T13:48:09;11.50;1.00
5466;DHT22;2755;50.728;7.108;2024-03-08T13:55:30;10.80;1.00
5466;DHT22;2755;50.728;7.108;2024-03-08T13:57:56;11.30;1.00
5466;DHT22;2755;50.728;7.108;2024-03-08T14:00:22;10.80;1.00
5466;DHT22;2755;50.728;7.108;2024-03-08T14:02:48;10.90;1.00
5466;DHT22;2755;50.728;7.108;2024-03-08T14:07:41;11.10;1.00
5466;DHT22;2755;50.728;7.108;2024-03-08T14:10:07;11.30;1.00
5466;DHT22;2755;50.728;7.108;2024-03-08T14:12:35;11.00;1.00
5466;DHT22;2755;50.728;7.108;2024-03-08T14:17:27;10.80;1.00
5466;DHT22;2755;50.728;7.108;2024-03-08T14:22:21;11.10;1.00
5466;DHT22;2755;50.728;7.108;2024-03-08T14:24:47;10.70;1.00
5466;DHT22;2755;50.728;7.108;2024-03-08T14:27:13;10.70;1.00
5466;DHT22;2755;50.728;7.108;2024-03-08T14:29:40;11.00;1.00
5466;DHT22;2755;50.728;7.108;2024-03-08T14:32:05;11.30;1.00
5466;DHT22;2755;50.728;7.108;2024-03-08T14:34:33;10.60;1.00
5466;DHT22;2755;50.728;7.108;2024-03-08T14:37:00;10.50;1.00
5466;DHT22;2755;50.728;7.108;2024-03-08T14:41:54;10.60;1.00
5466;DHT22;2755;50.728;7.108;2024-03-08T14:44:22;10.60;1.00
5466;DHT22;2755;50.728;7.108;2024-03-08T14:46:55;11.00;1.00
5466;DHT22;2755;50.728;7.108;2024-03-08T14:49:22;10.80;1.00
5466;DHT22;2755;50.728;7.108;2024-03-08T14:51:48;10.60;1.00
5466;DHT22;2755;50.728;7.108;2024-03-08T14:54:13;11.10;1.00
5466;DHT22;2755;50.728;7.108;2024-03-08T14:56:39;10.60;1.00
5466;DHT22;2755;50.728;7.108;2024-03-08T15:01:35;10.60;1.00
5466;DHT22;2755;50.728;7.108;2024-03-08T15:04:01;10.60;1.00
5466;DHT22;2755;50.728;7.108;2024-03-08T15:06:34;10.50;1.00
5466;DHT22;2755;50.728;7.108;2024-03-08T15:09:03;10.60;1.00
5466;DHT22;2755;50.728;7.108;2024-03-08T15:11:45;10.40;1.00
5466;DHT22;2755;50.728;7.108;2024-03-08T15:14:10;10.50;1.00
5466;DHT22;2755;50.728;7.108;2024-03-08T15:16:40;10.60;1.00
5466;DHT22;2755;50.728;7.108;2024-03-08T15:19:07;10.60;1.00
5466;DHT22;2755;50.728;7.108;2024-03-08T15:21:33;10.80;1.00
5466;DHT22;2755;50.728;7.108;2024-03-08T15:24:03;10.70;1.00
5466;DHT22;2755;50.728;7.108;2024-03-08T15:26:29;10.60;1.00
5466;DHT22;2755;50.728;7.108;2024-03-08T15:28:58;10.60;1.00
5466;DHT22;2755;50.728;7.108;2024-03-08T15:31:23;10.00;1.00
5466;DHT22;2755;50.728;7.108;2024-03-08T15:33:52;10.80;1.00
5466;DHT22;2755;50.728;7.108;2024-03-08T15:36:28;10.70;1.00
5466;DHT22;2755;50.728;7.108;2024-03-08T15:41:23;10.60;1.00
5466;DHT22;2755;50.728;7.108;2024-03-08T15:46:15;10.30;1.00
5466;DHT22;2755;50.728;7.108;2024-03-08T15:48:41;9.90;1.00
5466;DHT22;2755;50.728;7.108;2024-03-08T15:51:07;10.10;1.00
5466;DHT22;2755;50.728;7.108;2024-03-08T15:53:35;10.50;1.00
5466;DHT22;2755;50.728;7.108;2024-03-08T15:56:04;10.50;1.00
5466;DHT22;2755;50.728;7.108;2024-03-08T16:01:01;10.20;1.00
5466;DHT22;2755;50.728;7.108;2024-03-08T16:05:56;10.30;1.00
5466;DHT22;2755;50.728;7.108;2024-03-08T16:08:23;10.60;1.00
5466;DHT22;2755;50.728;7.108;2024-03-08T16:10:50;10.60;1.00
5466;DHT22;2755;50.728;7.108;2024-03-08T16:13:19;9.90;1.00
5466;DHT22;2755;50.728;7.108;2024-03-08T16:15:47;9.90;1.00
5466;DHT22;2755;50.728;7.108;2024-03-08T16:18:13;10.30;1.00
5466;DHT22;2755;50.728;7.108;2024-03-08T16:20:39;10.20;1.00
5466;DHT22;2755;50.728;7.108;2024-03-08T16:23:05;10.10;1.00
5466;DHT22;2755;50.728;7.108;2024-03-08T16:25:31;10.50;1.00
5466;DHT22;2755;50.728;7.108;2024-03-08T16:27:57;10.30;1.00
5466;DHT22;2755;50.728;7.108;2024-03-08T16:30:22;10.30;1.00
5466;DHT22;2755;50.728;7.108;2024-03-08T16:32:49;10.20;1.00
5466;DHT22;2755;50.728;7.108;2024-03-08T16:35:20;10.70;1.00
5466;DHT22;2755;50.728;7.108;2024-03-08T16:37:46;9.60;1.00
5466;DHT22;2755;50.728;7.108;2024-03-08T16:40:13;10.10;1.00
5466;DHT22;2755;50.728;7.108;2024-03-08T16:42:46;9.90;1.00
5466;DHT22;2755;50.728;7.108;2024-03-08T16:45:22;9.90;1.00
5466;DHT22;2755;50.728;7.108;2024-03-08T16:47:49;10.60;1.00
5466;DHT22;2755;50.728;7.108;2024-03-08T16:50:20;9.90;1.00
5466;DHT22;2755;50.728;7.108;2024-03-08T16:52:46;9.90;1.00
5466;DHT22;2755;50.728;7.108;2024-03-08T16:55:13;10.00;1.00
5466;DHT22;2755;50.728;7.108;2024-03-08T16:57:42;9.90;1.00
5466;DHT22;2755;50.728;7.108;2024-03-08T17:00:18;9.50;1.00
5466;DHT22;2755;50.728;7.108;2024-03-08T17:02:47;9.80;1.00
5466;DHT22;2755;50.728;7.108;2024-03-08T17:05:14;8.80;1.00
5466;DHT22;2755;50.728;7.108;2024-03-08T17:07:46;9.40;1.00
5466;DHT22;2755;50.728;7.108;2024-03-08T17:10:25;9.50;1.00
5466;DHT22;2755;50.728;7.108;2024-03-08T17:12:52;9.50;1.00
5466;DHT22;2755;50.728;7.108;2024-03-08T17:15:20;9.90;1.00
5466;DHT22;2755;50.728;7.108;2024-03-08T17:17:50;9.40;1.00
5466;DHT22;2755;50.728;7.108;2024-03-08T17:20:16;9.40;1.00
5466;DHT22;2755;50.728;7.108;2024-03-08T17:22:51;9.70;1.00
5466;DHT22;2755;50.728;7.108;2024-03-08T17:25:25;9.60;1.00
5466;DHT22;2755;50.728;7.108;2024-03-08T17:27:55;9.50;1.00
5466;DHT22;2755;50.728;7.108;2024-03-08T17:30:23;9.80;1.00
5466;DHT22;2755;50.728;7.108;2024-03-08T17:32:53;9.20;1.00
5466;DHT22;2755;50.728;7.108;2024-03-08T17:35:29;9.20;1.00
5466;DHT22;2755;50.728;7.108;2024-03-08T17:37:56;9.10;1.00
5466;DHT22;2755;50.728;7.108;2024-03-08T17:40:26;9.20;1.00
5466;DHT22;2755;50.728;7.108;2024-03-08T17:42:54;9.20;1.00
5466;DHT22;2755;50.728;7.108;2024-03-08T17:45:21;9.20;1.00
5466;DHT22;2755;50.728;7.108;2024-03-08T17:47:48;8.80;1.00
5466;DHT22;2755;50.728;7.108;2024-03-08T17:50:14;9.10;1.00
5466;DHT22;2755;50.728;7.108;2024-03-08T17:52:41;9.40;1.00
5466;DHT22;2755;50.728;7.108;2024-03-08T17:55:09;7.90;1.00
5466;DHT22;2755;50.728;7.108;2024-03-08T17:57:37;8.40;1.00
5466;DHT22;2755;50.728;7.108;2024-03-08T18:00:07;9.00;1.00
5466;DHT22;2755;50.728;7.108;2024-03-08T18:02:35;8.70;1.00
5466;DHT22;2755;50.728;7.108;2024-03-08T18:05:01;8.50;1.00
5466;DHT22;2755;50.728;7.108;2024-03-08T18:14:47;8.10;1.00
5466;DHT22;2755;50.728;7.108;2024-03-08T18:19:39;9.10;1.00
5466;DHT22;2755;50.728;7.108;2024-03-08T18:26:56;8.10;1.00
5466;DHT22;2755;50.728;7.108;2024-03-08T18:31:48;8.40;1.00
5466;DHT22;2755;50.728;7.108;2024-03-08T18:34:13;8.10;1.00
5466;DHT22;2755;50.728;7.108;2024-03-08T18:36:39;8.10;1.00
5466;DHT22;2755;50.728;7.108;2024-03-08T18:39:05;8.10;1.00
5466;DHT22;2755;50.728;7.108;2024-03-08T18:41:31;8.10;1.00
5466;DHT22;2755;50.728;7.108;2024-03-08T18:44:00;8.20;1.00
5466;DHT22;2755;50.728;7.108;2024-03-08T18:46:28;8.50;1.00
5466;DHT22;2755;50.728;7.108;2024-03-08T18:48:53;8.10;1.00
5466;DHT22;2755;50.728;7.108;2024-03-08T18:51:20;8.00;1.00
5466;DHT22;2755;50.728;7.108;2024-03-08T18:53:45;7.60;1.00
5466;DHT22;2755;50.728;7.108;2024-03-08T18:56:11;8.10;1.00
5466;DHT22;2755;50.728;7.108;2024-03-08T19:03:32;8.30;1.00
5466;DHT22;2755;50.728;7.108;2024-03-08T19:08:27;7.60;1.00
5466;DHT22;2755;50.728;7.108;2024-03-08T19:13:22;7.30;1.00
5466;DHT22;2755;50.728;7.108;2024-03-08T19:15:48;7.00;1.00
5466;DHT22;2755;50.728;7.108;2024-03-08T19:18:16;8.20;1.00
5466;DHT22;2755;50.728;7.108;2024-03-08T19:20:43;7.30;1.00
5466;DHT22;2755;50.728;7.108;2024-03-08T19:23:09;7.10;1.00
5466;DHT22;2755;50.728;7.108;2024-03-08T19:25:36;7.10;1.00
5466;DHT22;2755;50.728;7.108;2024-03-08T19:28:07;7.10;1.00
5466;DHT22;2755;50.728;7.108;2024-03-08T19:30:35;6.70;1.00
5466;DHT22;2755;50.728;7.108;2024-03-08T19:33:04;7.00;1.00
5466;DHT22;2755;50.728;7.108;2024-03-08T19:38:01;7.00;1.00
5466;DHT22;2755;50.728;7.108;2024-03-08T19:40:31;6.90;1.00
5466;DHT22;2755;50.728;7.108;2024-03-08T19:43:02;6.80;1.00
5466;DHT22;2755;50.728;7.108;2024-03-08T19:48:02;6.70;1.00
5466;DHT22;2755;50.728;7.108;2024-03-08T19:50:31;7.10;1.00
5466;DHT22;2755;50.728;7.108;2024-03-08T19:52:58;7.00;1.00
5466;DHT22;2755;50.728;7.108;2024-03-08T19:55:33;7.00;1.00
5466;DHT22;2755;50.728;7.108;2024-03-08T19:57:59;6.80;1.00
5466;DHT22;2755;50.728;7.108;2024-03-08T20:00:26;7.10;1.00
5466;DHT22;2755;50.728;7.108;2024-03-08T20:02:54;6.70;1.00